• Join FlightAware (Why Join?)
  • Login
  • US Flag 
02:08PM EST


 

Airport Tracker/Info


-or-


 

Live Flight TrackerFlight Track Log ✈ N942CE ✈ 09-May-2013 ✈ KJZI - KPTK

Flight Track Log - Related Links

Times and Time Zones

All times are in EDT time to prevent confusion due to time zone crossing. See the N942CE flight status page for this flight to view local times or setup timezone preferences in your user account.

Time Position Orientation Groundspeed Altitude Reporting Facility
EDT Latitude Longitude Course Direction KTS MPH feet Rate Location/Type
04:19PM 32.7439 -80.1264 324° Northwest 156 180 4,200  Level Jacksonville Center
04:20PM 32.7758 -80.1550 323° Northwest 164 189 5,900 1,680 Climbing Jacksonville Center
04:21PM 32.8097 -80.1836 325° Northwest 164 189 7,600 1,680 Climbing Jacksonville Center
04:22PM 32.9344 -80.2177 320° Northwest  Level FlightAware Approximate
04:22PM 32.8478 -80.2072 332° Northwest 157 181 9,300  Level Jacksonville Center
04:23PM 32.9809 -80.2642 320° Northwest  Level FlightAware Approximate
04:23PM 32.8939 -80.2083 359° North 151 174 10,800  Level Jacksonville Center
04:24PM 33.0280 -80.3099 324° Northwest  Level FlightAware Approximate
04:24PM 32.9500 -80.2092 359° North 189 217 11,100  Level Jacksonville Center
04:25PM 32.9981 -80.2103 359° North 197 227 13,200 1,740 Climbing Jacksonville Center
04:26PM 33.0464 -80.2211 349° North 183 211 14,600 1,500 Climbing Jacksonville Center
04:27PM 33.0925 -80.2297 351° North 171 197 16,200 1,500 Climbing Jacksonville Center
04:28PM 33.1428 -80.2381 352° North 171 197 17,600 1,320 Climbing Jacksonville Center
04:29PM 33.1911 -80.2492 349° North 171 197 18,900 1,200 Climbing Jacksonville Center
04:30PM 33.2392 -80.2600 349° North 171 197 20,100 1,200 Climbing Jacksonville Center
04:31PM 33.2875 -80.2711 349° North 171 197 21,400 1,260 Climbing Jacksonville Center
04:32PM 33.3358 -80.2822 349° North 171 197 22,700 1,080 Climbing Jacksonville Center
04:33PM 33.3839 -80.2931 349° North 171 197 23,600 600 Climbing Jacksonville Center
04:34PM 33.4364 -80.3039 350° North 182 209 24,000 180 Climbing Jacksonville Center
04:35PM 33.5011 -80.3147 352° North 206 237 24,000 180 Level Jacksonville Center
04:36PM 33.5664 -80.3328 347° North 222 255 24,400 480 Climbing Jacksonville Center
04:37PM 33.6250 -80.3458 349° North 222 255 25,000 300 Climbing Jacksonville Center
04:38PM 33.6900 -80.3589 351° North 222 255 25,000  Level Jacksonville Center
04:39PM 33.7508 -80.3722 350° North 222 255 25,000  Level Jacksonville Center
04:40PM 33.8178 -80.3853 351° North 222 255 25,000  Level Jacksonville Center
04:41PM 33.8828 -80.3986 350° North 227 261 25,000  Level Jacksonville Center
04:42PM 33.9456 -80.4092 352° North 227 261 25,000  Level Jacksonville Center
04:43PM 34.0083 -80.4250 348° North 227 261 25,000  Level Jacksonville Center
04:44PM 34.0733 -80.4406 349° North 227 261 25,000  Level Jacksonville Center
04:45PM 34.1342 -80.4539 350° North 222 255 25,000  Level Jacksonville Center
04:46PM 34.1969 -80.4647 352° North 222 255 25,000  Level Jacksonville Center
04:47PM 34.2578 -80.4783 350° North 222 255 25,000  Level Jacksonville Center
04:48PM 34.3206 -80.4917 350° North 222 255 25,000  Level Jacksonville Center
04:50PM 34.4514 -80.5247 348° North 217 250 25,000  Level Atlanta Center
04:51PM 34.5144 -80.5372 351° North 223 257 25,000  Level Atlanta Center
04:52PM 34.5733 -80.5500 350° North 223 257 25,000  Level Atlanta Center
04:53PM 34.6342 -80.5600 352° North 223 257 25,000  Level Atlanta Center
04:54PM 34.6931 -80.5778 346° North 218 251 25,000  Level Atlanta Center
04:55PM 34.7433 -80.5883 350° North 218 251 25,000  Level Atlanta Center
04:56PM 34.8061 -80.5983 353° North 218 251 25,000  Level Atlanta Center
04:57PM 34.8650 -80.6111 350° North 218 251 25,000  Level Atlanta Center
04:58PM 34.9217 -80.6267 347° North 218 251 25,000 480 Level Atlanta Center
04:59PM 34.9806 -80.6369 352° North 218 251 26,000 480 Climbing Atlanta Center
05:00PM 35.0392 -80.6497 350° North 218 251 26,000  Level Atlanta Center
05:01PM 35.1003 -80.6622 350° North 218 251 26,000  Level Atlanta Center
05:02PM 35.1672 -80.6775 349° North 218 251 26,000  Level Atlanta Center
05:03PM 35.2281 -80.6878 352° North 218 251 26,000  Level Atlanta Center
05:04PM 35.2869 -80.7031 348° North 218 251 26,000  Level Atlanta Center
05:05PM 35.3458 -80.7186 348° North 218 251 26,000  Level Atlanta Center
05:06PM 35.4044 -80.7289 352° North 218 251 26,000  Level Atlanta Center
05:07PM 35.4656 -80.7444 348° North 218 251 26,000  Level Atlanta Center
05:08PM 35.5219 -80.7547 352° North 218 251 26,000  Level Atlanta Center
05:09PM 35.5808 -80.7678 350° North 218 251 26,000  Level Atlanta Center
05:10PM 35.6375 -80.7808 349° North 213 245 26,000  Level Atlanta Center
05:11PM 35.6961 -80.7914 352° North 213 245 26,000  Level Atlanta Center
05:12PM 35.7550 -80.8069 348° North 213 245 26,000  Level Atlanta Center
05:13PM 35.8136 -80.8200 350° North 213 245 26,000 360 Level Atlanta Center
05:14PM 35.8703 -80.8331 349° North 213 245 26,800 480 Climbing Atlanta Center
05:15PM 35.9208 -80.8439 350° North 206 237 27,000 60 Climbing Atlanta Center
05:16PM 35.9817 -80.8569 350° North 206 237 27,000  Level Atlanta Center
05:17PM 36.0403 -80.8700 350° North 216 249 27,000  Level Atlanta Center
05:18PM 36.1033 -80.8856 349° North 221 254 27,000  Level Atlanta Center
05:19PM 36.1642 -80.8986 350° North 221 254 27,000  Level Atlanta Center
05:20PM 36.2250 -80.9117 350° North 221 254 27,000  Level Atlanta Center
05:21PM 36.2836 -80.9247 350° North 221 254 27,000  Level Atlanta Center
05:22PM 36.3486 -80.9403 349° North 221 254 27,000  Level Atlanta Center
05:23PM 36.4094 -80.9533 350° North 221 254 27,000  Level Atlanta Center
05:24PM 36.4683 -80.9667 350° North 221 254 27,000  Level Atlanta Center
05:25PM 36.5292 -80.9797 350° North 221 254 27,000  Level Atlanta Center
05:26PM 36.5878 -80.9931 350° North 221 254 27,000  Level Atlanta Center
05:27PM 36.6464 -81.0064 350° North 221 254 27,000  Level Atlanta Center
05:29PM 36.7592 -81.0353 348° North 219 252 27,000  Level Indianapolis Center
05:30PM 36.8178 -81.0469 351° North 219 252 27,000  Level Indianapolis Center
05:31PM 36.8869 -81.0639 349° North 217 250 27,000  Level Indianapolis Center
05:32PM 36.9453 -81.0772 350° North 218 251 27,000  Level Indianapolis Center
05:33PM 37.0056 -81.0900 350° North 224 258 27,000  Level Indianapolis Center
05:34PM 37.0742 -81.1067 349° North 217 250 27,000  Level Indianapolis Center
05:35PM 37.1339 -81.1206 349° North 219 252 27,000  Level Indianapolis Center
05:36PM 37.1928 -81.1347 349° North 220 253 27,000  Level Indianapolis Center
05:37PM 37.2631 -81.1506 350° North 220 253 27,000  Level Indianapolis Center
05:38PM 37.3231 -81.1642 350° North 224 258 27,000  Level Indianapolis Center
05:39PM 37.3808 -81.1783 349° North 218 251 27,000  Level Indianapolis Center
05:40PM 37.4386 -81.1917 350° North 216 249 27,000  Level Indianapolis Center
05:41PM 37.5083 -81.2075 350° North 217 250 27,000  Level Indianapolis Center
05:42PM 37.5661 -81.2206 350° North 218 251 27,000  Level Indianapolis Center
05:43PM 37.6244 -81.2353 349° North 219 252 27,000  Level Indianapolis Center
05:44PM 37.6939 -81.2517 349° North 217 250 27,000  Level Indianapolis Center
05:45PM 37.7528 -81.2647 350° North 220 253 27,000  Level Indianapolis Center
05:46PM 37.8106 -81.2786 349° North 217 250 27,000  Level Indianapolis Center
05:47PM 37.8786 -81.2950 349° North 215 247 27,000  Level Indianapolis Center
05:48PM 37.9375 -81.3083 350° North 215 247 27,000  Level Indianapolis Center
05:50PM 37.9961 -81.3225 349° North 215 247 27,000  Level Indianapolis Center
05:51PM 38.0558 -81.3367 349° North 216 249 27,000  Level Indianapolis Center
05:52PM 38.1139 -81.3522 348° North 214 246 27,000  Level Indianapolis Center
05:53PM 38.1739 -81.3650 350° North 216 249 27,000  Level Indianapolis Center
05:54PM 38.2453 -81.3814 350° North 219 252 27,000 -60 Level Indianapolis Center
05:55PM 38.3056 -81.3967 349° North 217 250 26,900  Descending Indianapolis Center
05:56PM 38.3644 -81.4108 349° North 217 250 27,000  Climbing Indianapolis Center
05:57PM 38.4242 -81.4253 349° North 218 251 26,900 -60 Descending Indianapolis Center
05:58PM 38.4836 -81.4392 350° North 216 249 26,900  Level Indianapolis Center
05:59PM 38.5422 -81.4528 350° North 215 247 27,000  Climbing Indianapolis Center
06:00PM 38.6122 -81.4700 349° North 215 247 27,000  Level Indianapolis Center
06:01PM 38.6703 -81.4844 349° North 215 247 27,000  Level Indianapolis Center
06:02PM 38.7292 -81.4983 350° North 215 247 27,000  Level Indianapolis Center
06:03PM 38.7853 -81.5119 349° North 217 250 27,000  Level Indianapolis Center
06:04PM 38.8564 -81.5289 349° North 217 250 27,000 -60 Level Indianapolis Center
06:05PM 38.9150 -81.5428 350° North 214 246 26,900 -60 Descending Indianapolis Center
06:06PM 38.9736 -81.5575 349° North 214 246 26,900  Level Indianapolis Center
06:07PM 39.0317 -81.5722 349° North 213 245 26,900  Level Indianapolis Center
06:08PM 39.0914 -81.5867 349° North 216 249 26,900  Level Indianapolis Center
06:09PM 39.1503 -81.6011 349° North 217 250 27,000  Climbing Indianapolis Center
06:10PM 39.2206 -81.6183 349° North 213 245 27,000  Level Indianapolis Center
06:11PM 39.2803 -81.6328 349° North 217 250 27,000  Level Indianapolis Center
06:12PM 39.3394 -81.6478 349° North 218 251 27,000  Level Indianapolis Center
06:13PM 39.3992 -81.6614 350° North 219 252 27,000  Level Indianapolis Center
06:14PM 39.4583 -81.6767 349° North 217 250 27,000  Level Indianapolis Center
06:15PM 39.5192 -81.6914 349° North 220 253 27,000  Level Indianapolis Center
06:16PM 39.5789 -81.7067 349° North 219 252 27,000  Level Indianapolis Center
06:17PM 39.6508 -81.7253 349° North 220 253 27,000  Level Indianapolis Center
06:18PM 39.7069 -81.7389 349° North 221 254 27,000  Level Indianapolis Center
06:20PM 39.7678 -81.7531 350° North 221 254 27,000  Level Indianapolis Center
06:21PM 39.8381 -81.7708 349° North 218 251 27,000  Level Indianapolis Center
06:22PM 39.8989 -81.7872 348° North 220 253 27,000  Level Indianapolis Center
06:23PM 39.9586 -81.8025 349° North 218 251 27,000  Level Indianapolis Center
06:24PM 40.0206 -81.8169 350° North 223 257 27,000  Level Indianapolis Center
06:25PM 40.0811 -81.8336 348° North 220 253 27,000  Level Indianapolis Center
06:26PM 40.1428 -81.8475 350° North 222 255 27,000  Level Indianapolis Center
06:27PM 40.2156 -81.8664 349° North 225 259 27,000  Level Indianapolis Center
06:28PM 40.2758 -81.8811 349° North 225 259 27,000  Level Indianapolis Center
06:29PM 40.3378 -81.8978 348° North 224 258 27,000  Level Indianapolis Center
06:30PM 40.3908 -81.9106 350° North 223 257 27,000  Level Cleveland Center
06:31PM 40.4533 -81.9256 350° North 223 257 27,000  Level Cleveland Center
06:32PM 40.5133 -81.9431 347° North 223 257 27,000  Level Cleveland Center
06:33PM 40.5778 -81.9636 346° North 223 257 27,000  Level Cleveland Center
06:34PM 40.6339 -81.9922 339° North 223 257 27,000  Level Cleveland Center
06:35PM 40.6917 -82.0233 338° Northwest 223 257 27,000  Level Cleveland Center
06:36PM 40.7497 -82.0522 339° North 223 257 27,000 -300 Level Cleveland Center
06:37PM 40.8097 -82.0808 340° North 223 257 26,500 -900 Descending Cleveland Center
06:38PM 40.8658 -82.1097 339° North 234 269 25,300 -1,260 Descending Cleveland Center
06:39PM 40.9300 -82.1442 338° Northwest 241 277 24,000 -1,380 Descending Cleveland Center
06:40PM 40.9961 -82.1789 338° Northwest 252 290 22,600 -1,020 Descending Cleveland Center
06:41PM 41.0625 -82.2133 339° North 252 290 22,000 -300 Descending Cleveland Center
06:42PM 41.1244 -82.2481 337° Northwest 246 283 22,000  Level Cleveland Center
06:43PM 41.1928 -82.2828 339° North 241 277 22,000 -660 Level Cleveland Center
06:44PM 41.2569 -82.3150 339° North 241 277 20,700 -1,500 Descending Cleveland Center
06:45PM 41.3250 -82.3500 339° North 258 297 19,000 -1,800 Descending Cleveland Center
06:46PM 41.3953 -82.3878 338° Northwest 268 308 17,200 -1,800 Descending Cleveland Center
06:47PM 41.4697 -82.4258 339° North 273 314 15,500 -1,800 Descending Cleveland Center
06:48PM 41.5400 -82.4642 338° Northwest 278 320 13,700 -1,860 Descending Cleveland Center
06:49PM 41.6103 -82.4994 339° North 273 314 11,800 -1,800 Descending Cleveland Center
06:50PM 41.6786 -82.5375 337° Northwest 273 314 10,100 -1,380 Descending Cleveland Center
06:51PM 41.7425 -82.5703 339° North 268 308 9,100 -600 Descending Cleveland Center
06:52PM 41.8025 -82.6053 337° Northwest 258 297 9,000 -60 Descending Cleveland Center
06:53PM 41.8625 -82.6297 343° North 236 272 9,000 -540 Level Cleveland Center
06:54PM 41.9394 -82.6378 356° North 239 275 7,900 -1,080 Descending Cleveland Center
06:55PM 41.9933 -82.6478 352° North 228 262 6,900 -1,200 Descending Cleveland Center
06:56PM 42.0575 -82.6806 339° North 233 268 5,700 -1,320 Descending Cleveland Center
06:56PM 42.0739 -82.6922 332° Northwest 240 276 5,300 -720 Descending Cleveland Center
06:57PM 42.1172 -82.7133 340° North 238 274 5,000 -300 Descending Cleveland Center
06:57PM 42.1381 -82.7225 342° North 225 259 5,000  Level Cleveland Center
06:58PM 42.1708 -82.7461 332° Northwest 226 260 5,000 -600 Level Cleveland Center
06:59PM 42.2244 -82.7872 330° Northwest 213 245 4,000 -540 Descending Cleveland Center
07:00PM 42.2758 -82.8225 333° Northwest 213 245 4,000  Level Cleveland Center
07:01PM 42.3333 -82.8639 332° Northwest 195 224 4,000  Level Cleveland Center
07:02PM 42.3847 -82.8967 335° Northwest 198 228 4,000  Level Cleveland Center
07:03PM 42.4342 -82.9322 332° Northwest 204 235 4,000  Level Cleveland Center
07:04PM 42.4814 -82.9706 329° Northwest 204 235 4,000  Level Cleveland Center
07:05PM 42.5114 -83.0308 304° West 201 231 4,000  Level Cleveland Center
07:06PM 42.5494 -83.1000 307° West 206 237 4,000  Level Cleveland Center
07:07PM 42.5856 -83.1664 306° West 208 239 4,000 -240 Level Cleveland Center
07:08PM 42.6133 -83.2211 305° West 211 243 3,600 -660 Descending Cleveland Center
07:09PM 42.6514 -83.2906 307° West 197 227 2,700 -660 Descending Cleveland Center
07:10PM 42.6667 -83.3447 291° West 139 160 2,200 -540 Descending Cleveland Center